createdAt,value
2022-10-29T00:00:39.308Z,99480.75
2022-10-29T00:03:26.833Z,99477.31
2022-10-29T00:06:04.588Z,99477.31
2022-10-29T00:08:33.282Z,99474.84
2022-10-29T00:11:10.673Z,99481.03
2022-10-29T00:13:37.854Z,99474.84
2022-10-29T00:16:09.572Z,99477.53
2022-10-29T00:18:37.115Z,99474.94
2022-10-29T00:21:05.241Z,99467.84
2022-10-29T00:23:32.023Z,99467.72
2022-10-29T00:25:59.399Z,99471.41
2022-10-29T00:28:26.228Z,99472.50
2022-10-29T00:30:53.079Z,99473.59
2022-10-29T00:35:56.822Z,99469.03
2022-10-29T00:38:23.995Z,99469.28
2022-10-29T00:40:50.872Z,99467.56
2022-10-29T00:43:19.175Z,99473.81
2022-10-29T00:45:55.927Z,99467.56
2022-10-29T00:48:22.701Z,99464.00
2022-10-29T00:50:49.730Z,99459.56
2022-10-29T00:53:16.904Z,99459.66
2022-10-29T00:55:43.664Z,99458.69
2022-10-29T00:58:10.650Z,99461.75
2022-10-29T01:00:38.801Z,99466.06
2022-10-29T01:03:06.517Z,99461.63
2022-10-29T01:05:33.790Z,99468.03
2022-10-29T01:08:01.158Z,99465.19
2022-10-29T01:10:34.391Z,99460.78
2022-10-29T01:13:09.232Z,99468.91
2022-10-29T01:15:38.622Z,99460.03
2022-10-29T01:18:13.833Z,99457.44
2022-10-29T01:21:05.518Z,99451.03
2022-10-29T01:24:00.130Z,99443.03
2022-10-29T01:26:48.349Z,99453.97
2022-10-29T01:29:43.429Z,99445.88
2022-10-29T01:32:17.663Z,99457.03
2022-10-29T01:34:58.791Z,99452.50
2022-10-29T01:37:39.235Z,99467.00
2022-10-29T01:40:16.050Z,99457.91
2022-10-29T01:42:48.910Z,99444.28
2022-10-29T01:45:23.376Z,99452.50
2022-10-29T01:47:56.301Z,99456.19
2022-10-29T01:50:23.978Z,99451.75
2022-10-29T01:52:51.050Z,99449.03
2022-10-29T01:55:22.981Z,99449.03
2022-10-29T01:57:49.766Z,99451.75
2022-10-29T02:00:18.366Z,99443.78
2022-10-29T02:03:12.244Z,99449.28
2022-10-29T02:05:55.146Z,99441.91
2022-10-29T02:08:32.407Z,99435.75
2022-10-29T02:11:08.717Z,99423.94
2022-10-29T02:13:39.550Z,99425.16
2022-10-29T02:16:06.931Z,99430.47
2022-10-29T02:18:44.694Z,99427.75
2022-10-29T02:21:14.878Z,99429.59
2022-10-29T02:23:41.902Z,99426.88
2022-10-29T02:26:08.714Z,99419.63
2022-10-29T02:28:35.476Z,99413.34
2022-10-29T02:31:02.515Z,99412.59
2022-10-29T02:33:29.425Z,99408.81
2022-10-29T02:35:56.244Z,99415.31
2022-10-29T02:38:23.219Z,99411.75
2022-10-29T02:40:50.087Z,99404.50
2022-10-29T02:43:16.850Z,99402.63
2022-10-29T02:45:43.882Z,99396.38
2022-10-29T02:48:10.652Z,99411.00
2022-10-29T02:50:37.433Z,99412.72
2022-10-29T02:53:04.442Z,99409.16
2022-10-29T02:55:31.219Z,99410.00
2022-10-29T02:57:58.394Z,99405.84
2022-10-29T03:00:25.603Z,99405.72
2022-10-29T03:02:52.889Z,99402.13
2022-10-29T03:05:19.802Z,99407.53
2022-10-29T03:07:46.778Z,99397.72
2022-10-29T03:10:13.554Z,99392.41
2022-10-29T03:12:40.321Z,99417.28
2022-10-29T03:15:07.847Z,99424.78
2022-10-29T03:17:34.588Z,99421.06
2022-10-29T03:20:01.465Z,99414.81
2022-10-29T03:22:28.560Z,99408.44
2022-10-29T03:24:55.298Z,99404.84
2022-10-29T03:27:22.057Z,99411.25
2022-10-29T03:29:49.761Z,99414.81
2022-10-29T03:32:16.531Z,99414.69
2022-10-29T03:34:43.302Z,99420.00
2022-10-29T03:37:10.310Z,99421.06
2022-10-29T03:39:37.123Z,99422.81
2022-10-29T03:42:04.099Z,99420.09
2022-10-29T03:44:31.378Z,99440.00
2022-10-29T03:46:58.150Z,99433.75
2022-10-29T03:49:24.910Z,99434.97
2022-10-29T03:51:51.965Z,99440.13
2022-10-29T03:54:18.863Z,99436.47
2022-10-29T03:56:45.846Z,99440.00
2022-10-29T03:59:12.663Z,99441.00
2022-10-29T04:01:39.812Z,99439.50
2022-10-29T04:04:06.759Z,99445.44
2022-10-29T04:06:33.766Z,99442.72
2022-10-29T04:09:00.528Z,99442.84
2022-10-29T04:11:27.535Z,99429.44
2022-10-29T04:13:54.349Z,99434.72
2022-10-29T04:16:21.120Z,99427.72
2022-10-29T04:18:48.927Z,99437.41
2022-10-29T04:23:54.386Z,99438.66
2022-10-29T04:29:37.786Z,99410.50
2022-10-29T04:32:04.927Z,99407.91
2022-10-29T04:34:32.126Z,99395.25
2022-10-29T04:36:58.869Z,99392.78
2022-10-29T04:39:25.622Z,99396.22
2022-10-29T04:41:52.641Z,99390.81
2022-10-29T04:44:20.191Z,99397.22
2022-10-29T04:46:47.007Z,99402.75
2022-10-29T04:49:14.081Z,99388.88
2022-10-29T04:51:40.983Z,99385.03
2022-10-29T04:54:08.001Z,99385.16
2022-10-29T04:56:34.794Z,99397.72
2022-10-29T04:59:01.849Z,99422.19
2022-10-29T05:01:28.753Z,99429.44
2022-10-29T05:03:59.011Z,99430.19
2022-10-29T05:06:26.945Z,99423.91
2022-10-29T05:08:53.915Z,99427.38
2022-10-29T05:11:20.686Z,99427.25
2022-10-29T05:13:47.746Z,99422.06
2022-10-29T05:16:14.544Z,99425.63
2022-10-29T05:18:41.618Z,99420.97
2022-10-29T05:21:08.389Z,99414.69
2022-10-29T05:23:35.450Z,99414.69
2022-10-29T05:26:02.239Z,99418.25
2022-10-29T05:28:29.431Z,99411.25
2022-10-29T05:30:56.272Z,99412.09
2022-10-29T05:33:24.216Z,99418.38
2022-10-29T05:35:51.102Z,99427.47
2022-10-29T05:38:18.357Z,99425.28
2022-10-29T05:40:45.538Z,99423.53
2022-10-29T05:43:13.313Z,99430.94
2022-10-29T05:45:40.121Z,99433.41
2022-10-29T05:48:07.778Z,99435.25
2022-10-29T05:50:34.792Z,99430.94
2022-10-29T05:53:03.568Z,99428.22
2022-10-29T05:55:30.801Z,99420.97
2022-10-29T05:58:05.149Z,99421.84
2022-10-29T06:00:33.640Z,99430.06
2022-10-29T06:03:01.001Z,99436.34
2022-10-29T06:05:28.264Z,99440.91
2022-10-29T06:07:56.498Z,99447.06
2022-10-29T06:10:24.370Z,99442.59
2022-10-29T06:12:51.353Z,99449.75
2022-10-29T06:15:18.561Z,99455.06
2022-10-29T06:17:45.614Z,99443.72
2022-10-29T06:20:13.548Z,99449.03
2022-10-29T06:22:40.589Z,99455.91
2022-10-29T06:25:07.760Z,99453.44
2022-10-29T06:27:35.045Z,99457.66
2022-10-29T06:30:02.043Z,99464.03
2022-10-29T06:32:29.080Z,99475.47
2022-10-29T06:34:55.838Z,99474.41
2022-10-29T06:37:22.833Z,99473.00
2022-10-29T06:39:49.629Z,99476.59
2022-10-29T06:42:16.610Z,99477.09
2022-10-29T06:44:43.477Z,99485.97
2022-10-29T06:47:10.481Z,99480.66
2022-10-29T06:49:37.291Z,99480.44
2022-10-29T06:52:04.512Z,99477.84
2022-10-29T06:54:31.279Z,99479.47
2022-10-29T06:56:58.331Z,99484.75
2022-10-29T06:59:25.109Z,99495.44
2022-10-29T07:01:52.129Z,99497.28
2022-10-29T07:04:20.861Z,99502.59
2022-10-29T07:06:47.656Z,99505.41
2022-10-29T07:09:14.663Z,99503.34
2022-10-29T07:11:41.591Z,99500.50
2022-10-29T07:14:09.950Z,99504.09
2022-10-29T07:16:36.967Z,99510.25
2022-10-29T07:19:04.458Z,99518.50
2022-10-29T07:21:31.279Z,99513.94
2022-10-29T07:23:58.083Z,99514.78
2022-10-29T07:26:25.085Z,99508.50
2022-10-29T07:28:56.818Z,99508.41
2022-10-29T07:31:24.136Z,99514.16
2022-10-29T07:33:50.918Z,99508.50
2022-10-29T07:36:17.993Z,99509.31
2022-10-29T07:38:44.985Z,99506.75
2022-10-29T07:41:12.032Z,99522.50
2022-10-29T07:43:38.884Z,99519.78
2022-10-29T07:46:06.128Z,99519.06
2022-10-29T07:48:32.899Z,99515.09
2022-10-29T07:51:00.793Z,99520.28
2022-10-29T07:53:27.947Z,99529.16
2022-10-29T07:55:55.368Z,99519.81
2022-10-29T07:58:22.368Z,99526.84
2022-10-29T08:00:49.272Z,99532.88
2022-10-29T08:03:16.318Z,99526.00
2022-10-29T08:05:43.277Z,99534.53
2022-10-29T08:08:10.137Z,99532.81
2022-10-29T08:10:37.312Z,99533.19
2022-10-29T08:13:05.375Z,99529.38
2022-10-29T08:15:32.586Z,99541.81
2022-10-29T08:17:59.710Z,99535.66
2022-10-29T08:20:27.224Z,99539.88
2022-10-29T08:22:54.635Z,99543.31
2022-10-29T08:25:21.604Z,99543.72
2022-10-29T08:27:59.464Z,99540.63
2022-10-29T08:30:26.374Z,99544.09
2022-10-29T08:32:53.751Z,99541.88
2022-10-29T08:35:20.729Z,99538.91
2022-10-29T08:37:48.079Z,99534.84
2022-10-29T08:40:29.454Z,99538.31
2022-10-29T08:43:28.802Z,99539.66
2022-10-29T08:45:55.801Z,99538.28
2022-10-29T08:48:29.049Z,99544.97
2022-10-29T08:51:17.917Z,99539.28
2022-10-29T08:53:54.243Z,99539.91
2022-10-29T08:56:37.279Z,99539.25
2022-10-29T08:59:09.409Z,99537.91
2022-10-29T09:01:36.327Z,99536.66
2022-10-29T09:04:05.691Z,99525.78
2022-10-29T09:06:44.106Z,99526.25
2022-10-29T09:09:31.442Z,99530.31
2022-10-29T09:12:04.338Z,99537.94
2022-10-29T09:14:31.533Z,99530.28
2022-10-29T09:17:17.622Z,99526.19
2022-10-29T09:20:20.867Z,99531.13
2022-10-29T09:23:12.360Z,99531.34
2022-10-29T09:25:42.125Z,99530.72
2022-10-29T09:28:19.247Z,99535.47
2022-10-29T09:30:57.846Z,99527.78
2022-10-29T09:33:24.653Z,99530.72
2022-10-29T09:35:55.740Z,99528.13
2022-10-29T09:38:26.014Z,99529.19
2022-10-29T09:40:53.471Z,99519.78
2022-10-29T09:43:34.328Z,99510.22
2022-10-29T09:46:16.590Z,99513.41
2022-10-29T09:49:14.097Z,99513.59
2022-10-29T09:51:41.182Z,99519.25
2022-10-29T09:54:08.100Z,99523.41
2022-10-29T09:56:35.086Z,99523.84
2022-10-29T09:59:11.469Z,99512.44
2022-10-29T10:01:38.409Z,99517.19
2022-10-29T10:04:11.512Z,99510.59
2022-10-29T10:07:07.584Z,99513.78
2022-10-29T10:09:52.771Z,99507.78
2022-10-29T10:12:23.604Z,99493.91
2022-10-29T10:15:04.527Z,99503.22
2022-10-29T10:18:06.485Z,99500.38
2022-10-29T10:20:41.487Z,99498.66
2022-10-29T10:23:28.524Z,99494.69
2022-10-29T10:26:00.427Z,99487.91
2022-10-29T10:28:31.846Z,99507.16
2022-10-29T10:31:08.262Z,99497.53
2022-10-29T10:33:36.635Z,99491.81
2022-10-29T10:36:10.989Z,99491.25
2022-10-29T10:38:43.307Z,99485.69
2022-10-29T10:41:11.415Z,99478.50
2022-10-29T10:43:42.690Z,99481.81
2022-10-29T10:46:25.168Z,99475.25
2022-10-29T10:49:03.668Z,99469.19
2022-10-29T10:51:32.689Z,99472.38
2022-10-29T10:53:59.889Z,99464.50
2022-10-29T10:56:27.091Z,99466.91
2022-10-29T10:58:56.385Z,99463.75
2022-10-29T11:01:36.506Z,99468.22
2022-10-29T11:04:11.557Z,99468.91
2022-10-29T11:06:40.231Z,99464.59
2022-10-29T11:09:10.020Z,99460.31
2022-10-29T11:11:44.247Z,99459.84
2022-10-29T11:14:23.631Z,99458.84
2022-10-29T11:16:52.262Z,99466.59
2022-10-29T11:19:34.298Z,99461.84
2022-10-29T11:22:42.210Z,99455.41
2022-10-29T11:25:21.545Z,99456.69
2022-10-29T11:27:53.466Z,99449.94
2022-10-29T11:30:20.557Z,99455.97
2022-10-29T11:33:05.907Z,99455.81
2022-10-29T11:35:32.961Z,99446.47
2022-10-29T11:38:08.933Z,99441.00
2022-10-29T11:40:54.282Z,99440.00
2022-10-29T11:43:21.220Z,99433.25
2022-10-29T11:46:00.911Z,99432.66
2022-10-29T11:49:03.220Z,99437.97
2022-10-29T11:51:56.289Z,99443.69
2022-10-29T11:54:54.116Z,99439.78
2022-10-29T11:57:40.709Z,99433.91
2022-10-29T12:00:07.527Z,99428.88
2022-10-29T12:03:02.793Z,99427.16
2022-10-29T12:05:32.424Z,99420.53
2022-10-29T12:08:24.361Z,99427.44
2022-10-29T12:11:27.280Z,99421.19
2022-10-29T12:14:12.811Z,99419.41
2022-10-29T12:17:11.965Z,99412.38
2022-10-29T12:20:01.033Z,99410.34
2022-10-29T12:22:38.435Z,99408.91
2022-10-29T12:25:15.408Z,99409.22
2022-10-29T12:28:09.130Z,99414.22
2022-10-29T12:30:57.912Z,99408.44
2022-10-29T12:33:28.864Z,99412.22
2022-10-29T12:36:15.339Z,99406.56
2022-10-29T12:38:49.070Z,99402.00
2022-10-29T12:41:36.258Z,99388.94
2022-10-29T12:44:15.206Z,99393.25
2022-10-29T12:47:01.223Z,99391.53
2022-10-29T12:49:43.970Z,99387.06
2022-10-29T12:52:18.767Z,99384.50
2022-10-29T12:54:46.357Z,99391.84
2022-10-29T12:57:13.360Z,99389.41
2022-10-29T12:59:41.075Z,99391.84
2022-10-29T13:02:32.915Z,99403.03
2022-10-29T13:05:06.059Z,99405.78
2022-10-29T13:07:34.168Z,99417.00
2022-10-29T13:10:28.626Z,99400.31
2022-10-29T13:12:55.497Z,99404.06
2022-10-29T13:15:34.542Z,99404.94
2022-10-29T13:18:06.077Z,99395.59
2022-10-29T13:20:35.550Z,99385.69
2022-10-29T13:23:05.191Z,99395.84
2022-10-29T13:25:38.160Z,99381.31
2022-10-29T13:28:08.088Z,99383.34
2022-10-29T13:30:41.987Z,99372.03
2022-10-29T13:33:27.350Z,99378.47
2022-10-29T13:36:04.537Z,99378.09
2022-10-29T13:39:07.297Z,99380.28
2022-10-29T13:41:43.281Z,99387.47
2022-10-29T13:44:12.895Z,99390.19
2022-10-29T13:46:53.071Z,99392.38
2022-10-29T13:49:32.349Z,99395.38
2022-10-29T13:52:21.373Z,99406.75
2022-10-29T13:54:59.608Z,99397.72
2022-10-29T13:57:32.867Z,99396.69
2022-10-29T14:00:12.021Z,99395.84
2022-10-29T14:02:43.700Z,99397.16
2022-10-29T14:05:24.808Z,99390.53
2022-10-29T14:08:06.992Z,99392.84
2022-10-29T14:10:53.847Z,99389.44
2022-10-29T14:13:31.324Z,99377.06
2022-10-29T14:16:03.047Z,99377.19
2022-10-29T14:18:35.211Z,99384.53
2022-10-29T14:21:03.045Z,99389.28
2022-10-29T14:23:30.673Z,99380.41
2022-10-29T14:26:00.171Z,99377.81
2022-10-29T14:28:31.492Z,99373.50
2022-10-29T14:31:06.477Z,99379.25
2022-10-29T14:33:33.554Z,99388.47
2022-10-29T14:36:20.572Z,99383.31
2022-10-29T14:39:32.429Z,99383.59
2022-10-29T14:41:59.627Z,99374.88
2022-10-29T14:44:31.299Z,99381.47
2022-10-29T14:47:08.862Z,99391.53
2022-10-29T14:49:39.702Z,99387.41
2022-10-29T14:52:39.623Z,99387.69
2022-10-29T14:55:17.607Z,99396.31
2022-10-29T14:57:47.538Z,99388.56
2022-10-29T15:00:25.692Z,99375.97
2022-10-29T15:02:53.807Z,99371.53
2022-10-29T15:05:29.227Z,99379.69
2022-10-29T15:08:07.029Z,99380.00
2022-10-29T15:10:50.636Z,99373.84
2022-10-29T15:13:29.620Z,99364.69
2022-10-29T15:16:00.642Z,99367.69
2022-10-29T15:18:27.414Z,99365.41
2022-10-29T15:20:54.904Z,99361.84
2022-10-29T15:23:25.987Z,99373.00
2022-10-29T15:25:57.659Z,99362.41
2022-10-29T15:28:26.218Z,99352.97
2022-10-29T15:30:54.288Z,99344.34
2022-10-29T15:33:22.463Z,99350.38
2022-10-29T15:35:52.221Z,99348.53
2022-10-29T15:38:31.189Z,99354.69
2022-10-29T15:41:19.692Z,99377.44
2022-10-29T15:43:56.254Z,99374.03
2022-10-29T15:46:27.860Z,99376.03
2022-10-29T15:48:54.919Z,99360.97
2022-10-29T15:51:25.463Z,99352.09
2022-10-29T15:53:52.585Z,99354.25
2022-10-29T15:56:19.617Z,99350.25
2022-10-29T15:58:47.067Z,99358.56
2022-10-29T16:01:15.333Z,99358.00
2022-10-29T16:03:43.126Z,99358.13
2022-10-29T16:06:11.393Z,99361.97
2022-10-29T16:08:47.723Z,99359.41
2022-10-29T16:11:16.184Z,99361.56
2022-10-29T16:13:43.230Z,99377.16
2022-10-29T16:16:17.507Z,99364.69
2022-10-29T16:18:44.903Z,99367.88
2022-10-29T16:21:17.259Z,99366.97
2022-10-29T16:23:44.346Z,99369.13
2022-10-29T16:26:15.851Z,99359.53
2022-10-29T16:28:43.767Z,99356.97
2022-10-29T16:31:28.835Z,99367.41
2022-10-29T16:33:59.725Z,99357.66
2022-10-29T16:36:26.873Z,99366.84
2022-10-29T16:38:54.081Z,99378.00
2022-10-29T16:41:20.888Z,99373.53
2022-10-29T16:43:48.005Z,99371.22
2022-10-29T16:46:14.869Z,99375.81
2022-10-29T16:48:41.667Z,99374.97
2022-10-29T16:51:08.668Z,99376.81
2022-10-29T16:53:35.544Z,99367.22
2022-10-29T16:56:02.365Z,99365.50
2022-10-29T16:58:30.045Z,99364.75
2022-10-29T17:01:07.107Z,99360.28
2022-10-29T17:03:35.386Z,99354.41
2022-10-29T17:06:09.209Z,99362.00
2022-10-29T17:08:37.028Z,99362.41
2022-10-29T17:11:06.034Z,99360.56
2022-10-29T17:13:34.206Z,99368.13
2022-10-29T17:16:01.356Z,99369.84
2022-10-29T17:18:28.166Z,99357.41
2022-10-29T17:20:58.760Z,99361.94
2022-10-29T17:23:25.718Z,99369.41
2022-10-29T17:25:56.503Z,99371.41
2022-10-29T17:28:23.743Z,99362.66
2022-10-29T17:30:50.569Z,99368.22
2022-10-29T17:33:17.682Z,99367.66
2022-10-29T17:35:44.597Z,99367.06
2022-10-29T17:38:11.643Z,99362.63
2022-10-29T17:40:38.445Z,99365.19
2022-10-29T17:43:05.511Z,99363.03
2022-10-29T17:45:32.437Z,99373.50
2022-10-29T17:47:59.679Z,99372.19
2022-10-29T17:50:27.292Z,99365.75
2022-10-29T17:52:54.639Z,99356.28
2022-10-29T17:55:21.460Z,99356.81
2022-10-29T17:57:48.529Z,99367.41
2022-10-29T18:00:15.797Z,99372.00
2022-10-29T18:02:42.732Z,99363.09
2022-10-29T18:05:09.863Z,99359.81
2022-10-29T18:07:36.637Z,99359.81
2022-10-29T18:10:03.873Z,99352.63
2022-10-29T18:12:31.737Z,99357.06
2022-10-29T18:14:58.493Z,99348.91
2022-10-29T18:17:25.582Z,99349.03
2022-10-29T18:19:53.613Z,99347.78
2022-10-29T18:22:20.637Z,99356.91
2022-10-29T18:24:47.498Z,99351.00
2022-10-29T18:27:14.538Z,99350.16
2022-10-29T18:29:41.354Z,99360.13
2022-10-29T18:32:08.173Z,99359.59
2022-10-29T18:34:36.327Z,99357.78
2022-10-29T18:37:03.178Z,99363.50
2022-10-29T18:39:30.164Z,99362.91
2022-10-29T18:41:57.139Z,99363.63
2022-10-29T18:44:23.998Z,99363.16
2022-10-29T18:46:51.051Z,99353.53
2022-10-29T18:49:17.883Z,99349.25
2022-10-29T18:51:44.669Z,99344.09
2022-10-29T18:54:13.012Z,99351.78
2022-10-29T18:56:40.075Z,99352.88
2022-10-29T18:59:07.228Z,99351.31
2022-10-29T19:01:34.598Z,99356.88
2022-10-29T19:04:04.059Z,99364.19
2022-10-29T19:06:32.056Z,99352.72
2022-10-29T19:09:00.143Z,99353.81
2022-10-29T19:11:27.339Z,99350.25
2022-10-29T19:13:59.003Z,99346.94
2022-10-29T19:16:26.080Z,99349.66
2022-10-29T19:19:00.400Z,99346.31
2022-10-29T19:21:27.446Z,99346.31
2022-10-29T19:23:58.784Z,99343.75
2022-10-29T19:26:26.746Z,99352.03
2022-10-29T19:28:53.930Z,99353.84
2022-10-29T19:31:26.634Z,99353.84
2022-10-29T19:33:58.772Z,99346.88
2022-10-29T19:36:26.327Z,99336.13
2022-10-29T19:38:53.407Z,99326.97
2022-10-29T19:41:20.516Z,99327.53
2022-10-29T19:43:47.537Z,99327.41
2022-10-29T19:46:18.595Z,99320.97
2022-10-29T19:48:50.152Z,99326.53
2022-10-29T19:51:17.459Z,99340.38
2022-10-29T19:53:44.265Z,99336.06
2022-10-29T19:56:12.286Z,99344.91
2022-10-29T19:58:39.085Z,99349.75
2022-10-29T20:01:11.602Z,99344.34
2022-10-29T20:03:38.560Z,99341.75
2022-10-29T20:06:06.623Z,99342.59
2022-10-29T20:08:33.513Z,99344.72
2022-10-29T20:11:00.695Z,99339.28
2022-10-29T20:13:27.555Z,99339.41
2022-10-29T20:15:54.641Z,99341.28
2022-10-29T20:18:21.444Z,99352.13
2022-10-29T20:20:55.571Z,99347.84
2022-10-29T20:23:23.211Z,99343.53
2022-10-29T20:25:50.341Z,99342.81
2022-10-29T20:28:17.178Z,99339.97
2022-10-29T20:30:44.063Z,99342.81
2022-10-29T20:33:11.384Z,99340.09
2022-10-29T20:35:38.618Z,99341.06
2022-10-29T20:38:05.932Z,99333.31
2022-10-29T20:40:32.772Z,99343.06
2022-10-29T20:42:59.814Z,99338.63
2022-10-29T20:45:26.931Z,99343.44
2022-10-29T20:47:53.687Z,99335.19
2022-10-29T20:50:20.462Z,99333.47
2022-10-29T20:52:49.044Z,99328.91
2022-10-29T20:55:16.378Z,99322.63
2022-10-29T20:57:43.187Z,99335.56
2022-10-29T21:00:10.694Z,99328.44
2022-10-29T21:02:37.637Z,99337.53
2022-10-29T21:05:04.823Z,99323.00
2022-10-29T21:07:31.849Z,99323.84
2022-10-29T21:09:58.663Z,99330.13
2022-10-29T21:12:25.658Z,99322.13
2022-10-29T21:14:52.476Z,99330.25
2022-10-29T21:17:22.106Z,99318.56
2022-10-29T21:19:49.120Z,99323.13
2022-10-29T21:22:18.805Z,99326.09
2022-10-29T21:24:45.980Z,99326.81
2022-10-29T21:27:12.776Z,99324.13
2022-10-29T21:29:39.555Z,99321.53
2022-10-29T21:32:06.661Z,99305.25
2022-10-29T21:34:33.425Z,99300.97
2022-10-29T21:37:00.224Z,99294.53
2022-10-29T21:39:27.737Z,99287.41
2022-10-29T21:41:54.563Z,99300.97
2022-10-29T21:44:21.575Z,99299.22
2022-10-29T21:46:48.590Z,99304.66
2022-10-29T21:49:15.413Z,99312.66
2022-10-29T21:51:42.357Z,99304.66
2022-10-29T21:54:09.380Z,99303.09
2022-10-29T21:56:36.176Z,99306.78
2022-10-29T21:59:03.051Z,99304.91
2022-10-29T22:01:30.220Z,99298.50
2022-10-29T22:03:57.071Z,99295.91
2022-10-29T22:06:25.668Z,99303.22
2022-10-29T22:08:57.118Z,99310.47
2022-10-29T22:11:24.328Z,99302.31
2022-10-29T22:13:51.869Z,99302.31
2022-10-29T22:16:18.898Z,99300.75
2022-10-29T22:18:46.305Z,99298.03
2022-10-29T22:21:15.073Z,99290.03
2022-10-29T22:23:43.385Z,99287.31
2022-10-29T22:26:10.784Z,99274.88
2022-10-29T22:28:37.521Z,99270.44
2022-10-29T22:31:05.140Z,99281.44
2022-10-29T22:33:32.298Z,99283.16
2022-10-29T22:36:13.191Z,99289.69
2022-10-29T22:38:40.543Z,99284.13
2022-10-29T22:41:11.553Z,99295.97
2022-10-29T22:43:38.489Z,99296.09
2022-10-29T22:46:06.222Z,99290.94
2022-10-29T22:48:33.357Z,99285.66
2022-10-29T22:51:01.760Z,99282.19
2022-10-29T22:53:29.114Z,99280.34
2022-10-29T22:55:55.911Z,99271.47
2022-10-29T22:58:22.856Z,99275.91
2022-10-29T23:00:50.063Z,99271.34
2022-10-29T23:03:16.826Z,99261.75
2022-10-29T23:05:43.627Z,99260.91
2022-10-29T23:08:10.626Z,99259.31
2022-10-29T23:10:37.433Z,99258.44
2022-10-29T23:13:04.259Z,99248.59
2022-10-29T23:15:31.278Z,99259.56
2022-10-29T23:17:58.416Z,99247.88
2022-10-29T23:20:25.353Z,99252.44
2022-10-29T23:22:52.417Z,99267.09
2022-10-29T23:25:19.165Z,99268.22
2022-10-29T23:27:45.953Z,99264.50
2022-10-29T23:30:13.217Z,99258.38
2022-10-29T23:32:40.027Z,99260.09
2022-10-29T23:35:07.165Z,99253.66
2022-10-29T23:37:34.276Z,99260.09
2022-10-29T23:40:01.089Z,99261.06
2022-10-29T23:42:27.933Z,99258.63
2022-10-29T23:44:54.973Z,99266.75
2022-10-29T23:47:21.742Z,99274.16
2022-10-29T23:49:48.524Z,99268.72
2022-10-29T23:52:15.532Z,99262.47
2022-10-29T23:54:42.365Z,99271.66
2022-10-29T23:57:09.192Z,99259.25
2022-10-29T23:59:36.212Z,99260.22
